sensor_id;sensor_type;location;lat;lon;timestamp;temperature;humidity
11284;DHT22;5698;47.332;11.180;2022-09-21T00:01:18;4.40;99.90
11284;DHT22;5698;47.332;11.180;2022-09-21T00:03:46;4.30;99.90
11284;DHT22;5698;47.332;11.180;2022-09-21T00:06:15;4.20;99.90
11284;DHT22;5698;47.332;11.180;2022-09-21T00:08:43;4.10;99.90
11284;DHT22;5698;47.332;11.180;2022-09-21T00:11:12;4.00;99.90
11284;DHT22;5698;47.332;11.180;2022-09-21T00:13:41;3.80;99.90
11284;DHT22;5698;47.332;11.180;2022-09-21T00:16:12;3.60;99.90
11284;DHT22;5698;47.332;11.180;2022-09-21T00:18:39;3.30;99.90
11284;DHT22;5698;47.332;11.180;2022-09-21T00:21:07;3.20;99.90
11284;DHT22;5698;47.332;11.180;2022-09-21T00:23:34;3.10;99.90
11284;DHT22;5698;47.332;11.180;2022-09-21T00:26:09;2.80;99.90
11284;DHT22;5698;47.332;11.180;2022-09-21T00:28:37;3.00;99.90
11284;DHT22;5698;47.332;11.180;2022-09-21T00:31:09;3.30;99.90
11284;DHT22;5698;47.332;11.180;2022-09-21T00:33:37;3.30;99.90
11284;DHT22;5698;47.332;11.180;2022-09-21T00:36:06;3.20;99.90
11284;DHT22;5698;47.332;11.180;2022-09-21T00:38:35;2.90;99.90
11284;DHT22;5698;47.332;11.180;2022-09-21T00:41:03;2.60;99.90
11284;DHT22;5698;47.332;11.180;2022-09-21T00:43:33;2.30;99.90
11284;DHT22;5698;47.332;11.180;2022-09-21T00:46:04;2.20;99.90
11284;DHT22;5698;47.332;11.180;2022-09-21T00:48:32;2.10;99.90
11284;DHT22;5698;47.332;11.180;2022-09-21T00:51:03;2.00;99.90
11284;DHT22;5698;47.332;11.180;2022-09-21T00:53:32;1.90;99.90
11284;DHT22;5698;47.332;11.180;2022-09-21T00:56:00;1.90;99.90
11284;DHT22;5698;47.332;11.180;2022-09-21T00:58:30;1.80;99.90
11284;DHT22;5698;47.332;11.180;2022-09-21T01:00:59;1.70;99.90
11284;DHT22;5698;47.332;11.180;2022-09-21T01:03:27;1.70;99.90
11284;DHT22;5698;47.332;11.180;2022-09-21T01:05:57;1.70;99.90
11284;DHT22;5698;47.332;11.180;2022-09-21T01:08:25;1.80;99.90
11284;DHT22;5698;47.332;11.180;2022-09-21T01:11:09;1.90;99.90
11284;DHT22;5698;47.332;11.180;2022-09-21T01:13:50;2.00;99.90
11284;DHT22;5698;47.332;11.180;2022-09-21T01:16:24;1.90;99.90
11284;DHT22;5698;47.332;11.180;2022-09-21T01:18:59;1.80;99.90
11284;DHT22;5698;47.332;11.180;2022-09-21T01:21:33;1.50;99.90
11284;DHT22;5698;47.332;11.180;2022-09-21T01:24:19;1.50;99.90
11284;DHT22;5698;47.332;11.180;2022-09-21T01:27:11;1.50;99.90
11284;DHT22;5698;47.332;11.180;2022-09-21T01:29:47;1.50;99.90
11284;DHT22;5698;47.332;11.180;2022-09-21T01:32:18;1.50;99.90
11284;DHT22;5698;47.332;11.180;2022-09-21T01:34:51;1.50;99.90
11284;DHT22;5698;47.332;11.180;2022-09-21T01:37:23;1.40;99.90
11284;DHT22;5698;47.332;11.180;2022-09-21T01:39:54;1.30;99.90
11284;DHT22;5698;47.332;11.180;2022-09-21T01:42:25;1.20;99.90
11284;DHT22;5698;47.332;11.180;2022-09-21T01:44:57;1.10;99.90
11284;DHT22;5698;47.332;11.180;2022-09-21T01:47:26;1.10;99.90
11284;DHT22;5698;47.332;11.180;2022-09-21T01:49:59;1.10;99.90
11284;DHT22;5698;47.332;11.180;2022-09-21T01:52:30;1.10;99.90
11284;DHT22;5698;47.332;11.180;2022-09-21T01:55:02;1.20;99.90
11284;DHT22;5698;47.332;11.180;2022-09-21T01:57:35;1.10;99.90
11284;DHT22;5698;47.332;11.180;2022-09-21T02:00:07;1.10;99.90
11284;DHT22;5698;47.332;11.180;2022-09-21T02:02:37;1.10;99.90
11284;DHT22;5698;47.332;11.180;2022-09-21T02:05:06;1.20;99.90
11284;DHT22;5698;47.332;11.180;2022-09-21T02:07:34;1.20;99.90
11284;DHT22;5698;47.332;11.180;2022-09-21T02:10:07;1.20;99.90
11284;DHT22;5698;47.332;11.180;2022-09-21T02:12:35;1.10;99.90
11284;DHT22;5698;47.332;11.180;2022-09-21T02:15:03;1.00;99.90
11284;DHT22;5698;47.332;11.180;2022-09-21T02:17:38;1.00;99.90
11284;DHT22;5698;47.332;11.180;2022-09-21T02:20:17;1.00;99.90
11284;DHT22;5698;47.332;11.180;2022-09-21T02:22:53;1.00;99.90
11284;DHT22;5698;47.332;11.180;2022-09-21T02:25:33;1.00;99.90
11284;DHT22;5698;47.332;11.180;2022-09-21T02:28:07;1.00;99.90
11284;DHT22;5698;47.332;11.180;2022-09-21T02:30:37;1.00;99.90
11284;DHT22;5698;47.332;11.180;2022-09-21T02:33:11;0.90;99.90
11284;DHT22;5698;47.332;11.180;2022-09-21T02:35:43;0.90;99.90
11284;DHT22;5698;47.332;11.180;2022-09-21T02:38:18;0.90;99.90
11284;DHT22;5698;47.332;11.180;2022-09-21T02:40:51;0.80;99.90
11284;DHT22;5698;47.332;11.180;2022-09-21T02:43:24;0.80;99.90
11284;DHT22;5698;47.332;11.180;2022-09-21T02:45:58;0.70;99.90
11284;DHT22;5698;47.332;11.180;2022-09-21T02:48:30;0.70;99.90
11284;DHT22;5698;47.332;11.180;2022-09-21T02:51:04;0.70;99.90
11284;DHT22;5698;47.332;11.180;2022-09-21T02:53:35;0.70;99.90
11284;DHT22;5698;47.332;11.180;2022-09-21T02:56:04;0.60;99.90
11284;DHT22;5698;47.332;11.180;2022-09-21T02:58:36;0.70;99.90
11284;DHT22;5698;47.332;11.180;2022-09-21T03:01:06;0.80;99.90
11284;DHT22;5698;47.332;11.180;2022-09-21T03:03:35;0.80;99.90
11284;DHT22;5698;47.332;11.180;2022-09-21T03:06:02;0.90;99.90
11284;DHT22;5698;47.332;11.180;2022-09-21T03:08:29;1.00;99.90
11284;DHT22;5698;47.332;11.180;2022-09-21T03:10:56;1.00;99.90
11284;DHT22;5698;47.332;11.180;2022-09-21T03:13:23;1.00;99.90
11284;DHT22;5698;47.332;11.180;2022-09-21T03:15:58;1.00;99.90
11284;DHT22;5698;47.332;11.180;2022-09-21T03:18:25;1.00;99.90
11284;DHT22;5698;47.332;11.180;2022-09-21T03:20:53;1.00;99.90
11284;DHT22;5698;47.332;11.180;2022-09-21T03:23:21;1.10;99.90
11284;DHT22;5698;47.332;11.180;2022-09-21T03:25:48;1.10;99.90
11284;DHT22;5698;47.332;11.180;2022-09-21T03:28:17;1.00;99.90
11284;DHT22;5698;47.332;11.180;2022-09-21T03:30:45;1.00;99.90
11284;DHT22;5698;47.332;11.180;2022-09-21T03:33:12;1.10;99.90
11284;DHT22;5698;47.332;11.180;2022-09-21T03:35:39;1.10;99.90
11284;DHT22;5698;47.332;11.180;2022-09-21T03:38:08;1.10;99.90
11284;DHT22;5698;47.332;11.180;2022-09-21T03:40:35;1.10;99.90
11284;DHT22;5698;47.332;11.180;2022-09-21T03:43:02;1.00;99.90
11284;DHT22;5698;47.332;11.180;2022-09-21T03:45:29;1.00;99.90
11284;DHT22;5698;47.332;11.180;2022-09-21T03:47:57;1.00;99.90
11284;DHT22;5698;47.332;11.180;2022-09-21T03:50:26;1.00;99.90
11284;DHT22;5698;47.332;11.180;2022-09-21T03:52:53;0.90;99.90
11284;DHT22;5698;47.332;11.180;2022-09-21T03:55:22;0.90;99.90
11284;DHT22;5698;47.332;11.180;2022-09-21T03:57:49;0.80;99.90
11284;DHT22;5698;47.332;11.180;2022-09-21T04:00:16;0.90;99.90
11284;DHT22;5698;47.332;11.180;2022-09-21T04:02:44;0.90;99.90
11284;DHT22;5698;47.332;11.180;2022-09-21T04:05:13;0.90;99.90
11284;DHT22;5698;47.332;11.180;2022-09-21T04:07:42;1.00;99.90
11284;DHT22;5698;47.332;11.180;2022-09-21T04:10:12;0.90;99.90
11284;DHT22;5698;47.332;11.180;2022-09-21T04:12:41;0.90;99.90
11284;DHT22;5698;47.332;11.180;2022-09-21T04:15:09;0.80;99.90
11284;DHT22;5698;47.332;11.180;2022-09-21T04:17:37;0.80;99.90
11284;DHT22;5698;47.332;11.180;2022-09-21T04:20:05;0.80;99.90
11284;DHT22;5698;47.332;11.180;2022-09-21T04:22:33;0.80;99.90
11284;DHT22;5698;47.332;11.180;2022-09-21T04:25:00;0.80;99.90
11284;DHT22;5698;47.332;11.180;2022-09-21T04:27:27;0.80;99.90
11284;DHT22;5698;47.332;11.180;2022-09-21T04:29:55;0.90;99.90
11284;DHT22;5698;47.332;11.180;2022-09-21T04:32:22;0.90;99.90
11284;DHT22;5698;47.332;11.180;2022-09-21T04:34:49;0.90;99.90
11284;DHT22;5698;47.332;11.180;2022-09-21T04:37:16;0.90;99.90
11284;DHT22;5698;47.332;11.180;2022-09-21T04:39:43;0.90;99.90
11284;DHT22;5698;47.332;11.180;2022-09-21T04:42:10;0.90;99.90
11284;DHT22;5698;47.332;11.180;2022-09-21T04:44:37;0.80;99.90
11284;DHT22;5698;47.332;11.180;2022-09-21T04:47:06;0.70;99.90
11284;DHT22;5698;47.332;11.180;2022-09-21T04:49:33;0.80;99.90
11284;DHT22;5698;47.332;11.180;2022-09-21T04:52:00;0.70;99.90
11284;DHT22;5698;47.332;11.180;2022-09-21T04:54:27;0.80;99.90
11284;DHT22;5698;47.332;11.180;2022-09-21T04:56:54;0.80;99.90
11284;DHT22;5698;47.332;11.180;2022-09-21T04:59:21;0.80;99.90
11284;DHT22;5698;47.332;11.180;2022-09-21T05:01:48;0.90;99.90
11284;DHT22;5698;47.332;11.180;2022-09-21T05:04:16;0.80;99.90
11284;DHT22;5698;47.332;11.180;2022-09-21T05:06:43;0.80;99.90
11284;DHT22;5698;47.332;11.180;2022-09-21T05:09:10;0.80;99.90
11284;DHT22;5698;47.332;11.180;2022-09-21T05:11:55;0.80;99.90
11284;DHT22;5698;47.332;11.180;2022-09-21T05:14:22;0.70;99.90
11284;DHT22;5698;47.332;11.180;2022-09-21T05:16:49;0.80;99.90
11284;DHT22;5698;47.332;11.180;2022-09-21T05:19:17;0.70;99.90
11284;DHT22;5698;47.332;11.180;2022-09-21T05:21:44;0.60;99.90
11284;DHT22;5698;47.332;11.180;2022-09-21T05:24:12;0.60;99.90
11284;DHT22;5698;47.332;11.180;2022-09-21T05:26:39;0.60;99.90
11284;DHT22;5698;47.332;11.180;2022-09-21T05:29:07;0.60;99.90
11284;DHT22;5698;47.332;11.180;2022-09-21T05:31:41;0.60;99.90
11284;DHT22;5698;47.332;11.180;2022-09-21T05:34:22;0.60;99.90
11284;DHT22;5698;47.332;11.180;2022-09-21T05:36:58;0.70;99.90
11284;DHT22;5698;47.332;11.180;2022-09-21T05:39:27;0.70;99.90
11284;DHT22;5698;47.332;11.180;2022-09-21T05:41:54;0.70;99.90
11284;DHT22;5698;47.332;11.180;2022-09-21T05:44:22;0.70;99.90
11284;DHT22;5698;47.332;11.180;2022-09-21T05:46:54;0.70;99.90
11284;DHT22;5698;47.332;11.180;2022-09-21T05:49:37;0.70;99.90
11284;DHT22;5698;47.332;11.180;2022-09-21T05:52:11;0.70;99.90
11284;DHT22;5698;47.332;11.180;2022-09-21T05:54:51;0.90;99.90
11284;DHT22;5698;47.332;11.180;2022-09-21T05:57:28;0.80;99.90
11284;DHT22;5698;47.332;11.180;2022-09-21T06:00:05;0.80;99.90
11284;DHT22;5698;47.332;11.180;2022-09-21T06:02:49;0.80;99.90
11284;DHT22;5698;47.332;11.180;2022-09-21T06:05:22;0.70;99.90
11284;DHT22;5698;47.332;11.180;2022-09-21T06:07:49;0.80;99.90
11284;DHT22;5698;47.332;11.180;2022-09-21T06:10:16;0.80;99.90
11284;DHT22;5698;47.332;11.180;2022-09-21T06:12:43;0.80;99.90
11284;DHT22;5698;47.332;11.180;2022-09-21T06:15:12;0.80;99.90
11284;DHT22;5698;47.332;11.180;2022-09-21T06:17:40;0.90;99.90
11284;DHT22;5698;47.332;11.180;2022-09-21T06:20:08;0.90;99.90
11284;DHT22;5698;47.332;11.180;2022-09-21T06:22:36;0.90;99.90
11284;DHT22;5698;47.332;11.180;2022-09-21T06:25:04;0.90;99.90
11284;DHT22;5698;47.332;11.180;2022-09-21T06:27:31;0.90;99.90
11284;DHT22;5698;47.332;11.180;2022-09-21T06:29:58;0.90;99.90
11284;DHT22;5698;47.332;11.180;2022-09-21T06:32:25;1.00;99.90
11284;DHT22;5698;47.332;11.180;2022-09-21T06:34:52;1.30;99.90
11284;DHT22;5698;47.332;11.180;2022-09-21T06:37:19;1.50;99.90
11284;DHT22;5698;47.332;11.180;2022-09-21T06:39:48;1.80;99.90
11284;DHT22;5698;47.332;11.180;2022-09-21T06:42:15;2.10;99.90
11284;DHT22;5698;47.332;11.180;2022-09-21T06:44:41;2.30;99.90
11284;DHT22;5698;47.332;11.180;2022-09-21T06:47:08;2.60;99.90
11284;DHT22;5698;47.332;11.180;2022-09-21T06:49:35;2.80;99.90
11284;DHT22;5698;47.332;11.180;2022-09-21T06:52:02;3.00;99.90
11284;DHT22;5698;47.332;11.180;2022-09-21T06:54:29;3.30;99.90
11284;DHT22;5698;47.332;11.180;2022-09-21T06:56:58;3.60;99.90
11284;DHT22;5698;47.332;11.180;2022-09-21T06:59:25;3.90;99.90
11284;DHT22;5698;47.332;11.180;2022-09-21T07:01:52;4.10;99.90
11284;DHT22;5698;47.332;11.180;2022-09-21T07:04:22;4.40;99.90
11284;DHT22;5698;47.332;11.180;2022-09-21T07:06:50;4.50;99.90
11284;DHT22;5698;47.332;11.180;2022-09-21T07:09:17;4.70;99.90
11284;DHT22;5698;47.332;11.180;2022-09-21T07:11:44;5.00;99.90
11284;DHT22;5698;47.332;11.180;2022-09-21T07:14:13;5.30;99.90
11284;DHT22;5698;47.332;11.180;2022-09-21T07:16:40;5.50;99.90
11284;DHT22;5698;47.332;11.180;2022-09-21T07:19:08;5.70;99.90
11284;DHT22;5698;47.332;11.180;2022-09-21T07:21:35;5.90;99.90
11284;DHT22;5698;47.332;11.180;2022-09-21T07:24:02;6.20;99.90
11284;DHT22;5698;47.332;11.180;2022-09-21T07:26:29;6.30;99.90
11284;DHT22;5698;47.332;11.180;2022-09-21T07:28:56;6.50;99.90
11284;DHT22;5698;47.332;11.180;2022-09-21T07:31:24;6.80;99.90
11284;DHT22;5698;47.332;11.180;2022-09-21T07:33:56;7.00;99.90
11284;DHT22;5698;47.332;11.180;2022-09-21T07:36:23;7.20;99.90
11284;DHT22;5698;47.332;11.180;2022-09-21T07:38:51;7.10;99.90
11284;DHT22;5698;47.332;11.180;2022-09-21T07:41:19;7.10;99.90
11284;DHT22;5698;47.332;11.180;2022-09-21T07:43:46;7.20;99.90
11284;DHT22;5698;47.332;11.180;2022-09-21T07:46:14;7.10;99.90
11284;DHT22;5698;47.332;11.180;2022-09-21T07:48:43;7.30;99.90
11284;DHT22;5698;47.332;11.180;2022-09-21T07:51:12;7.60;99.90
11284;DHT22;5698;47.332;11.180;2022-09-21T07:53:41;7.90;99.90
11284;DHT22;5698;47.332;11.180;2022-09-21T07:56:10;8.20;99.90
11284;DHT22;5698;47.332;11.180;2022-09-21T07:58:37;8.50;99.90
11284;DHT22;5698;47.332;11.180;2022-09-21T08:01:23;8.70;99.90
11284;DHT22;5698;47.332;11.180;2022-09-21T08:03:53;8.90;99.90
11284;DHT22;5698;47.332;11.180;2022-09-21T08:06:21;9.10;99.90
11284;DHT22;5698;47.332;11.180;2022-09-21T08:08:49;9.30;99.90
11284;DHT22;5698;47.332;11.180;2022-09-21T08:11:17;9.40;99.90
11284;DHT22;5698;47.332;11.180;2022-09-21T08:13:47;9.60;99.90
11284;DHT22;5698;47.332;11.180;2022-09-21T08:16:14;9.60;99.90
11284;DHT22;5698;47.332;11.180;2022-09-21T08:18:41;9.90;99.90
11284;DHT22;5698;47.332;11.180;2022-09-21T08:21:10;10.10;99.90
11284;DHT22;5698;47.332;11.180;2022-09-21T08:23:37;10.50;99.90
11284;DHT22;5698;47.332;11.180;2022-09-21T08:26:10;10.80;99.90
11284;DHT22;5698;47.332;11.180;2022-09-21T08:28:39;10.90;99.90
11284;DHT22;5698;47.332;11.180;2022-09-21T08:31:08;10.90;99.90
11284;DHT22;5698;47.332;11.180;2022-09-21T08:33:35;11.10;99.90
11284;DHT22;5698;47.332;11.180;2022-09-21T08:36:03;11.40;99.90
11284;DHT22;5698;47.332;11.180;2022-09-21T08:38:34;11.40;99.90
11284;DHT22;5698;47.332;11.180;2022-09-21T08:41:02;11.10;99.90
11284;DHT22;5698;47.332;11.180;2022-09-21T08:43:39;11.00;99.90
11284;DHT22;5698;47.332;11.180;2022-09-21T08:46:11;10.90;99.90
11284;DHT22;5698;47.332;11.180;2022-09-21T08:48:40;11.00;99.90
11284;DHT22;5698;47.332;11.180;2022-09-21T08:51:14;11.40;99.90
11284;DHT22;5698;47.332;11.180;2022-09-21T08:53:45;11.70;99.90
11284;DHT22;5698;47.332;11.180;2022-09-21T08:56:14;12.00;99.90
11284;DHT22;5698;47.332;11.180;2022-09-21T08:58:42;12.10;99.90
11284;DHT22;5698;47.332;11.180;2022-09-21T09:01:24;12.50;99.80
11284;DHT22;5698;47.332;11.180;2022-09-21T09:04:12;12.60;98.40
11284;DHT22;5698;47.332;11.180;2022-09-21T09:06:48;12.90;98.60
11284;DHT22;5698;47.332;11.180;2022-09-21T09:09:27;13.30;96.70
11284;DHT22;5698;47.332;11.180;2022-09-21T09:12:13;13.20;96.40
11284;DHT22;5698;47.332;11.180;2022-09-21T09:14:58;13.20;97.40
11284;DHT22;5698;47.332;11.180;2022-09-21T09:17:46;13.20;95.00
11284;DHT22;5698;47.332;11.180;2022-09-21T09:20:18;13.30;94.80
11284;DHT22;5698;47.332;11.180;2022-09-21T09:22:51;13.70;95.00
11284;DHT22;5698;47.332;11.180;2022-09-21T09:25:22;14.00;91.80
11284;DHT22;5698;47.332;11.180;2022-09-21T09:27:52;14.20;92.70
11284;DHT22;5698;47.332;11.180;2022-09-21T09:30:20;14.40;91.20
11284;DHT22;5698;47.332;11.180;2022-09-21T09:32:55;14.60;90.30
11284;DHT22;5698;47.332;11.180;2022-09-21T09:35:27;14.70;90.40
11284;DHT22;5698;47.332;11.180;2022-09-21T09:37:57;14.80;91.00
11284;DHT22;5698;47.332;11.180;2022-09-21T09:40:51;14.60;90.90
11284;DHT22;5698;47.332;11.180;2022-09-21T09:43:32;14.70;87.30
11284;DHT22;5698;47.332;11.180;2022-09-21T09:46:10;14.80;86.10
11284;DHT22;5698;47.332;11.180;2022-09-21T09:48:53;15.00;85.60
11284;DHT22;5698;47.332;11.180;2022-09-21T09:51:28;15.00;83.40
11284;DHT22;5698;47.332;11.180;2022-09-21T09:53:58;15.10;86.70
11284;DHT22;5698;47.332;11.180;2022-09-21T09:56:27;15.10;85.10
11284;DHT22;5698;47.332;11.180;2022-09-21T09:58:56;14.80;85.40
11284;DHT22;5698;47.332;11.180;2022-09-21T10:01:39;14.80;88.60
11284;DHT22;5698;47.332;11.180;2022-09-21T10:04:08;14.90;87.90
11284;DHT22;5698;47.332;11.180;2022-09-21T10:06:36;14.90;86.90
11284;DHT22;5698;47.332;11.180;2022-09-21T10:09:18;15.40;84.60
11284;DHT22;5698;47.332;11.180;2022-09-21T10:11:47;15.50;82.20
11284;DHT22;5698;47.332;11.180;2022-09-21T10:14:18;15.30;81.40
11284;DHT22;5698;47.332;11.180;2022-09-21T10:16:47;15.00;84.20
11284;DHT22;5698;47.332;11.180;2022-09-21T10:19:19;14.90;81.90
11284;DHT22;5698;47.332;11.180;2022-09-21T10:21:48;15.10;86.50
11284;DHT22;5698;47.332;11.180;2022-09-21T10:24:21;15.40;82.80
11284;DHT22;5698;47.332;11.180;2022-09-21T10:26:52;15.40;86.40
11284;DHT22;5698;47.332;11.180;2022-09-21T10:29:32;15.70;86.30
11284;DHT22;5698;47.332;11.180;2022-09-21T10:32:09;15.90;83.60
11284;DHT22;5698;47.332;11.180;2022-09-21T10:35:00;16.10;80.70
11284;DHT22;5698;47.332;11.180;2022-09-21T10:37:30;15.90;78.40
11284;DHT22;5698;47.332;11.180;2022-09-21T10:39:58;15.70;78.10
11284;DHT22;5698;47.332;11.180;2022-09-21T10:42:30;15.80;79.00
11284;DHT22;5698;47.332;11.180;2022-09-21T10:45:05;15.60;81.70
11284;DHT22;5698;47.332;11.180;2022-09-21T10:47:41;15.70;81.30
11284;DHT22;5698;47.332;11.180;2022-09-21T10:50:22;15.60;83.10
11284;DHT22;5698;47.332;11.180;2022-09-21T10:52:53;15.50;85.80
11284;DHT22;5698;47.332;11.180;2022-09-21T10:55:22;15.40;82.40
11284;DHT22;5698;47.332;11.180;2022-09-21T10:57:51;15.50;85.40
11284;DHT22;5698;47.332;11.180;2022-09-21T11:00:31;15.70;85.10
11284;DHT22;5698;47.332;11.180;2022-09-21T11:03:05;15.80;88.20
11284;DHT22;5698;47.332;11.180;2022-09-21T11:05:53;16.30;86.30
11284;DHT22;5698;47.332;11.180;2022-09-21T11:08:25;17.00;80.30
11284;DHT22;5698;47.332;11.180;2022-09-21T11:11:05;17.40;77.10
11284;DHT22;5698;47.332;11.180;2022-09-21T11:13:38;17.80;74.80
11284;DHT22;5698;47.332;11.180;2022-09-21T11:16:12;17.50;72.70
11284;DHT22;5698;47.332;11.180;2022-09-21T11:18:47;17.50;76.90
11284;DHT22;5698;47.332;11.180;2022-09-21T11:21:22;17.70;74.40
11284;DHT22;5698;47.332;11.180;2022-09-21T11:23:58;18.20;73.10
11284;DHT22;5698;47.332;11.180;2022-09-21T11:26:33;18.00;71.30
11284;DHT22;5698;47.332;11.180;2022-09-21T11:29:07;18.30;73.40
11284;DHT22;5698;47.332;11.180;2022-09-21T11:31:58;18.70;72.30
11284;DHT22;5698;47.332;11.180;2022-09-21T11:34:47;18.80;70.00
11284;DHT22;5698;47.332;11.180;2022-09-21T11:37:33;18.80;67.40
11284;DHT22;5698;47.332;11.180;2022-09-21T11:40:16;17.60;67.90
11284;DHT22;5698;47.332;11.180;2022-09-21T11:42:53;17.70;70.70
11284;DHT22;5698;47.332;11.180;2022-09-21T11:45:44;17.50;68.10
11284;DHT22;5698;47.332;11.180;2022-09-21T11:48:20;17.00;71.60
11284;DHT22;5698;47.332;11.180;2022-09-21T11:50:57;17.40;72.00
11284;DHT22;5698;47.332;11.180;2022-09-21T11:53:40;17.50;70.60
11284;DHT22;5698;47.332;11.180;2022-09-21T11:56:31;17.70;70.70
11284;DHT22;5698;47.332;11.180;2022-09-21T11:59:18;17.20;68.90
11284;DHT22;5698;47.332;11.180;2022-09-21T12:02:06;16.70;69.40
11284;DHT22;5698;47.332;11.180;2022-09-21T12:04:43;16.60;70.80
11284;DHT22;5698;47.332;11.180;2022-09-21T12:07:23;17.00;71.20
11284;DHT22;5698;47.332;11.180;2022-09-21T12:10:06;17.00;69.40
11284;DHT22;5698;47.332;11.180;2022-09-21T12:12:40;16.80;69.90
11284;DHT22;5698;47.332;11.180;2022-09-21T12:15:12;16.90;68.50
11284;DHT22;5698;47.332;11.180;2022-09-21T12:17:51;17.10;68.90
11284;DHT22;5698;47.332;11.180;2022-09-21T12:20:26;16.80;66.80
11284;DHT22;5698;47.332;11.180;2022-09-21T12:22:58;16.80;66.20
11284;DHT22;5698;47.332;11.180;2022-09-21T12:25:31;17.10;68.40
11284;DHT22;5698;47.332;11.180;2022-09-21T12:28:04;16.90;65.10
11284;DHT22;5698;47.332;11.180;2022-09-21T12:30:38;17.10;61.90
11284;DHT22;5698;47.332;11.180;2022-09-21T12:33:14;16.70;63.20
11284;DHT22;5698;47.332;11.180;2022-09-21T12:35:46;16.90;66.50
11284;DHT22;5698;47.332;11.180;2022-09-21T12:38:18;17.50;62.50
11284;DHT22;5698;47.332;11.180;2022-09-21T12:40:50;17.80;61.50
11284;DHT22;5698;47.332;11.180;2022-09-21T12:43:27;18.00;60.00
11284;DHT22;5698;47.332;11.180;2022-09-21T12:45:58;18.00;60.30
11284;DHT22;5698;47.332;11.180;2022-09-21T12:48:31;18.00;60.10
11284;DHT22;5698;47.332;11.180;2022-09-21T12:51:03;17.30;59.00
11284;DHT22;5698;47.332;11.180;2022-09-21T12:53:34;16.50;60.30
11284;DHT22;5698;47.332;11.180;2022-09-21T12:56:05;16.40;61.60
11284;DHT22;5698;47.332;11.180;2022-09-21T12:58:45;17.00;64.30
11284;DHT22;5698;47.332;11.180;2022-09-21T13:01:24;17.40;62.10
11284;DHT22;5698;47.332;11.180;2022-09-21T13:04:15;17.60;61.30
11284;DHT22;5698;47.332;11.180;2022-09-21T13:09:39;17.80;59.30
11284;DHT22;5698;47.332;11.180;2022-09-21T13:12:13;17.60;58.30
11284;DHT22;5698;47.332;11.180;2022-09-21T13:14:43;17.60;58.50
11284;DHT22;5698;47.332;11.180;2022-09-21T13:17:19;17.30;58.80
11284;DHT22;5698;47.332;11.180;2022-09-21T13:19:56;17.50;58.70
11284;DHT22;5698;47.332;11.180;2022-09-21T13:22:25;17.00;58.90
11284;DHT22;5698;47.332;11.180;2022-09-21T13:25:02;16.80;59.60
11284;DHT22;5698;47.332;11.180;2022-09-21T13:28:01;16.90;61.10
11284;DHT22;5698;47.332;11.180;2022-09-21T13:30:32;16.50;60.40
11284;DHT22;5698;47.332;11.180;2022-09-21T13:33:01;16.50;61.60
11284;DHT22;5698;47.332;11.180;2022-09-21T13:38:27;16.70;60.80
11284;DHT22;5698;47.332;11.180;2022-09-21T13:40:57;17.10;59.30
11284;DHT22;5698;47.332;11.180;2022-09-21T13:43:59;16.70;59.30
11284;DHT22;5698;47.332;11.180;2022-09-21T13:46:53;16.40;59.50
11284;DHT22;5698;47.332;11.180;2022-09-21T13:49:36;16.10;60.60
11284;DHT22;5698;47.332;11.180;2022-09-21T13:52:07;16.00;60.90
11284;DHT22;5698;47.332;11.180;2022-09-21T13:54:48;15.50;61.80
11284;DHT22;5698;47.332;11.180;2022-09-21T13:57:20;15.10;63.50
11284;DHT22;5698;47.332;11.180;2022-09-21T14:00:04;15.00;63.40
11284;DHT22;5698;47.332;11.180;2022-09-21T14:02:35;15.10;64.50
11284;DHT22;5698;47.332;11.180;2022-09-21T14:05:07;15.00;64.00
11284;DHT22;5698;47.332;11.180;2022-09-21T14:07:35;14.90;66.40
11284;DHT22;5698;47.332;11.180;2022-09-21T14:10:07;14.70;64.20
11284;DHT22;5698;47.332;11.180;2022-09-21T14:12:39;14.40;65.10
11284;DHT22;5698;47.332;11.180;2022-09-21T14:15:34;14.30;66.10
11284;DHT22;5698;47.332;11.180;2022-09-21T14:18:20;13.80;67.40
11284;DHT22;5698;47.332;11.180;2022-09-21T14:21:07;13.60;68.60
11284;DHT22;5698;47.332;11.180;2022-09-21T14:23:34;13.50;66.80
11284;DHT22;5698;47.332;11.180;2022-09-21T14:26:19;13.40;69.40
11284;DHT22;5698;47.332;11.180;2022-09-21T14:28:50;13.30;72.50
11284;DHT22;5698;47.332;11.180;2022-09-21T14:31:20;13.10;74.40
11284;DHT22;5698;47.332;11.180;2022-09-21T14:33:52;12.90;76.30
11284;DHT22;5698;47.332;11.180;2022-09-21T14:36:25;13.00;74.80
11284;DHT22;5698;47.332;11.180;2022-09-21T14:38:58;12.80;75.80
11284;DHT22;5698;47.332;11.180;2022-09-21T14:41:42;12.70;76.80
11284;DHT22;5698;47.332;11.180;2022-09-21T14:44:17;12.40;74.80
11284;DHT22;5698;47.332;11.180;2022-09-21T14:46:54;12.30;74.80
11284;DHT22;5698;47.332;11.180;2022-09-21T14:49:42;12.10;73.90
11284;DHT22;5698;47.332;11.180;2022-09-21T14:52:20;11.90;79.30
11284;DHT22;5698;47.332;11.180;2022-09-21T14:55:01;11.80;78.10
11284;DHT22;5698;47.332;11.180;2022-09-21T15:00:21;11.70;79.90
11284;DHT22;5698;47.332;11.180;2022-09-21T15:03:17;11.70;80.00
11284;DHT22;5698;47.332;11.180;2022-09-21T15:05:53;11.50;79.30
11284;DHT22;5698;47.332;11.180;2022-09-21T15:08:39;11.40;80.50
11284;DHT22;5698;47.332;11.180;2022-09-21T15:11:27;11.40;82.10
11284;DHT22;5698;47.332;11.180;2022-09-21T15:14:19;11.40;82.00
11284;DHT22;5698;47.332;11.180;2022-09-21T15:16:49;11.20;81.60
11284;DHT22;5698;47.332;11.180;2022-09-21T15:19:22;10.90;90.10
11284;DHT22;5698;47.332;11.180;2022-09-21T15:21:52;10.90;91.10
11284;DHT22;5698;47.332;11.180;2022-09-21T15:24:23;10.90;87.80
11284;DHT22;5698;47.332;11.180;2022-09-21T15:26:53;10.90;86.20
11284;DHT22;5698;47.332;11.180;2022-09-21T15:29:24;10.90;88.40
11284;DHT22;5698;47.332;11.180;2022-09-21T15:31:52;10.80;84.70
11284;DHT22;5698;47.332;11.180;2022-09-21T15:34:21;10.70;84.30
11284;DHT22;5698;47.332;11.180;2022-09-21T15:36:49;10.60;89.80
11284;DHT22;5698;47.332;11.180;2022-09-21T15:39:22;10.60;90.70
11284;DHT22;5698;47.332;11.180;2022-09-21T15:44:45;10.50;88.50
11284;DHT22;5698;47.332;11.180;2022-09-21T15:47:15;10.40;87.30
11284;DHT22;5698;47.332;11.180;2022-09-21T15:49:43;10.20;88.40
11284;DHT22;5698;47.332;11.180;2022-09-21T15:52:15;10.20;90.60
11284;DHT22;5698;47.332;11.180;2022-09-21T15:54:45;10.20;90.50
11284;DHT22;5698;47.332;11.180;2022-09-21T15:57:29;10.20;89.30
11284;DHT22;5698;47.332;11.180;2022-09-21T15:59:59;10.20;90.10
11284;DHT22;5698;47.332;11.180;2022-09-21T16:02:33;10.20;91.30
11284;DHT22;5698;47.332;11.180;2022-09-21T16:05:01;10.20;91.50
11284;DHT22;5698;47.332;11.180;2022-09-21T16:07:31;10.10;91.50
11284;DHT22;5698;47.332;11.180;2022-09-21T16:09:59;10.10;92.00
11284;DHT22;5698;47.332;11.180;2022-09-21T16:12:40;10.10;92.10
11284;DHT22;5698;47.332;11.180;2022-09-21T16:15:16;10.10;92.20
11284;DHT22;5698;47.332;11.180;2022-09-21T16:17:57;10.10;92.40
11284;DHT22;5698;47.332;11.180;2022-09-21T16:20:38;10.10;92.80
11284;DHT22;5698;47.332;11.180;2022-09-21T16:23:12;10.10;93.20
11284;DHT22;5698;47.332;11.180;2022-09-21T16:25:40;10.10;93.30